Time,TemperatureF,DewpointF,PressureIn,WindDirection,WindDirectionDegrees,WindSpeedMPH,WindSpeedGustMPH,Humidity,HourlyPrecipIn,Conditions,Clouds,dailyrainin,SolarRadiationWatts/m^2,SoftwareType,DateUTC
2013-02-02 00:01:00,33.0,31.0,-100.00,SW,214,1.0,5.0,91,0.00,,,0.00,1.000000,,2013-02-02 08:01:00,
2013-02-02 00:32:00,33.0,31.0,-100.00,SW,215,4.0,6.0,93,0.00,,,0.00,1.000000,,2013-02-02 08:32:00,
2013-02-02 00:42:00,33.0,31.0,-100.00,SW,215,4.0,6.0,93,0.00,,,0.00,1.000000,,2013-02-02 08:42:00,
2013-02-02 00:53:00,33.0,31.0,-100.00,SW,215,4.0,6.0,93,0.00,,,0.00,1.000000,,2013-02-02 08:53:00,
2013-02-02 01:01:00,33.0,31.0,-100.00,SW,215,4.0,6.0,93,0.00,,,0.00,1.000000,,2013-02-02 09:01:00,
2013-02-02 01:32:00,29.0,27.0,-100.00,SE,134,0.0,4.0,94,0.00,,,0.00,1.000000,,2013-02-02 09:32:00,
2013-02-02 01:42:00,29.0,27.0,-100.00,SE,134,0.0,4.0,94,0.00,,,0.00,1.000000,,2013-02-02 09:42:00,
2013-02-02 01:52:00,29.0,27.0,-100.00,SE,134,0.0,4.0,94,0.00,,,0.00,1.000000,,2013-02-02 09:52:00,
2013-02-02 02:01:00,29.0,27.0,-100.00,SE,134,0.0,4.0,94,0.00,,,0.00,1.000000,,2013-02-02 10:01:00,
2013-02-02 02:32:00,29.0,28.0,-100.00,NNW,334,1.0,4.0,95,0.00,,,0.00,1.000000,,2013-02-02 10:32:00,
2013-02-02 02:42:00,29.0,28.0,-100.00,NNW,334,1.0,4.0,95,0.00,,,0.00,1.000000,,2013-02-02 10:42:00,
2013-02-02 02:52:00,29.0,28.0,-100.00,NNW,334,1.0,4.0,95,0.00,,,0.00,1.000000,,2013-02-02 10:52:00,
2013-02-02 03:01:00,29.0,28.0,-100.00,NNW,334,1.0,4.0,95,0.00,,,0.00,1.000000,,2013-02-02 11:01:00,
2013-02-02 03:32:00,26.0,25.0,-100.00,SW,222,2.0,4.0,96,0.00,,,0.00,1.000000,,2013-02-02 11:32:00,
2013-02-02 03:42:00,26.0,25.0,-100.00,SW,222,2.0,4.0,96,0.00,,,0.00,1.000000,,2013-02-02 11:42:00,
2013-02-02 03:52:00,26.0,25.0,-100.00,SW,222,2.0,4.0,96,0.00,,,0.00,1.000000,,2013-02-02 11:52:00,
2013-02-02 04:01:00,26.0,25.0,-100.00,SW,222,2.0,4.0,96,0.00,,,0.00,1.000000,,2013-02-02 12:01:00,
2013-02-02 04:32:00,25.0,24.0,-100.00,ENE,74,1.0,1.0,96,0.00,,,0.00,1.000000,,2013-02-02 12:32:00,
2013-02-02 04:42:00,25.0,24.0,-100.00,ENE,74,1.0,1.0,96,0.00,,,0.00,1.000000,,2013-02-02 12:42:00,
2013-02-02 04:52:00,25.0,24.0,-100.00,ENE,74,1.0,1.0,96,0.00,,,0.00,1.000000,,2013-02-02 12:52:00,
2013-02-02 05:02:00,25.0,24.0,-100.00,ENE,74,1.0,1.0,96,0.00,,,0.00,1.000000,,2013-02-02 13:02:00,
2013-02-02 05:33:00,26.0,25.0,-100.00,North,3,3.0,5.0,97,0.00,,,0.00,1.000000,,2013-02-02 13:33:00,
2013-02-02 05:42:00,26.0,25.0,-100.00,North,3,3.0,5.0,97,0.00,,,0.00,1.000000,,2013-02-02 13:42:00,
2013-02-02 05:52:00,26.0,25.0,-100.00,North,3,3.0,5.0,97,0.00,,,0.00,1.000000,,2013-02-02 13:52:00,
2013-02-02 06:02:00,26.0,25.0,-100.00,North,3,3.0,5.0,97,0.00,,,0.00,1.000000,,2013-02-02 14:02:00,
2013-02-02 06:33:00,24.0,23.0,-100.00,SSW,209,1.0,3.0,96,0.00,,,0.00,1.000000,,2013-02-02 14:33:00,
2013-02-02 06:42:00,24.0,23.0,-100.00,SSW,209,1.0,3.0,96,0.00,,,0.00,1.000000,,2013-02-02 14:42:00,
2013-02-02 06:52:00,24.0,23.0,-100.00,SSW,209,1.0,3.0,96,0.00,,,0.00,1.000000,,2013-02-02 14:52:00,
2013-02-02 07:02:00,24.0,23.0,-100.00,SSW,209,1.0,3.0,96,0.00,,,0.00,1.000000,,2013-02-02 15:02:00,
2013-02-02 07:33:00,22.0,21.0,-100.00,SSW,209,2.0,3.0,95,0.00,,,0.00,1.000000,,2013-02-02 15:33:00,
2013-02-02 07:42:00,22.0,21.0,-100.00,SSW,209,2.0,3.0,95,0.00,,,0.00,1.000000,,2013-02-02 15:42:00,
2013-02-02 07:52:00,22.0,21.0,-100.00,SSW,209,2.0,3.0,95,0.00,,,0.00,1.000000,,2013-02-02 15:52:00,
2013-02-02 08:02:00,22.0,21.0,-100.00,SSW,209,2.0,3.0,95,0.00,,,0.00,1.000000,,2013-02-02 16:02:00,
2013-02-02 08:32:00,24.0,23.0,-100.00,SW,216,2.0,3.0,96,0.00,,,-99.99,10.000000,,2013-02-02 16:32:00,
2013-02-02 08:42:00,24.0,23.0,-100.00,SW,216,2.0,3.0,96,0.00,,,-99.99,10.000000,,2013-02-02 16:42:00,
2013-02-02 08:52:00,24.0,23.0,-100.00,SW,216,2.0,3.0,96,0.00,,,-99.99,10.000000,,2013-02-02 16:52:00,
2013-02-02 09:02:00,24.0,23.0,-100.00,SW,216,2.0,3.0,96,0.00,,,-99.99,10.000000,,2013-02-02 17:02:00,
2013-02-02 09:33:00,29.0,28.0,-100.00,SE,141,0.0,3.0,96,0.00,,,0.00,77.000000,,2013-02-02 17:33:00,
2013-02-02 09:42:00,29.0,28.0,-100.00,SE,141,0.0,3.0,96,0.00,,,0.00,77.000000,,2013-02-02 17:42:00,
2013-02-02 09:52:00,29.0,28.0,-100.00,SE,141,0.0,3.0,96,0.00,,,0.00,77.000000,,2013-02-02 17:52:00,
2013-02-02 10:02:00,29.0,28.0,-100.00,SE,141,0.0,3.0,96,0.00,,,0.00,77.000000,,2013-02-02 18:02:00,
2013-02-02 10:32:00,32.0,31.0,-100.00,SSW,198,3.0,5.0,95,0.00,,,0.00,225.000000,,2013-02-02 18:32:00,
2013-02-02 10:42:00,32.0,31.0,-100.00,SSW,198,3.0,5.0,95,0.00,,,0.00,225.000000,,2013-02-02 18:42:00,
2013-02-02 10:52:00,32.0,31.0,-100.00,SSW,198,3.0,5.0,95,0.00,,,0.00,225.000000,,2013-02-02 18:52:00,
2013-02-02 11:01:00,32.0,31.0,-100.00,SSW,198,3.0,5.0,95,0.00,,,0.00,225.000000,,2013-02-02 19:01:00,
2013-02-02 11:32:00,36.0,34.0,-100.00,East,82,2.0,5.0,92,0.00,,,0.00,281.000000,,2013-02-02 19:32:00,
2013-02-02 11:42:00,36.0,34.0,-100.00,East,82,2.0,5.0,92,0.00,,,0.00,281.000000,,2013-02-02 19:42:00,
2013-02-02 11:52:00,36.0,34.0,-100.00,East,82,2.0,5.0,92,0.00,,,0.00,281.000000,,2013-02-02 19:52:00,
2013-02-02 12:01:00,36.0,34.0,-100.00,East,82,2.0,5.0,92,0.00,,,0.00,281.000000,,2013-02-02 20:01:00,
2013-02-02 12:32:00,41.0,34.0,-100.00,SSE,155,2.0,4.0,76,0.00,,,0.00,392.000000,,2013-02-02 20:32:00,
2013-02-02 12:42:00,41.0,34.0,-100.00,SSE,155,2.0,4.0,76,0.00,,,0.00,392.000000,,2013-02-02 20:42:00,
2013-02-02 12:52:00,41.0,34.0,-100.00,SSE,155,2.0,4.0,76,0.00,,,0.00,392.000000,,2013-02-02 20:52:00,
2013-02-02 13:01:00,41.0,34.0,-100.00,SSE,155,2.0,4.0,76,0.00,,,0.00,392.000000,,2013-02-02 21:01:00,
2013-02-02 13:32:00,44.0,33.0,-100.00,East,96,2.0,4.0,66,0.00,,,0.00,356.000000,,2013-02-02 21:32:00,
2013-02-02 13:42:00,44.0,33.0,-100.00,East,96,2.0,4.0,66,0.00,,,0.00,356.000000,,2013-02-02 21:42:00,
2013-02-02 13:52:00,44.0,33.0,-100.00,East,96,2.0,4.0,66,0.00,,,0.00,356.000000,,2013-02-02 21:52:00,
2013-02-02 14:02:00,44.0,33.0,-100.00,East,96,2.0,4.0,66,0.00,,,0.00,356.000000,,2013-02-02 22:02:00,
2013-02-02 14:32:00,45.0,33.0,-100.00,East,100,2.0,4.0,62,0.00,,,0.00,297.000000,,2013-02-02 22:32:00,
2013-02-02 14:42:00,45.0,33.0,-100.00,East,100,2.0,4.0,62,0.00,,,0.00,297.000000,,2013-02-02 22:42:00,
2013-02-02 14:52:00,45.0,33.0,-100.00,East,100,2.0,4.0,62,0.00,,,0.00,297.000000,,2013-02-02 22:52:00,
2013-02-02 15:01:00,45.0,33.0,-100.00,East,100,2.0,4.0,62,0.00,,,0.00,297.000000,,2013-02-02 23:01:00,
2013-02-02 15:32:00,47.0,33.0,-100.00,North,4,2.0,5.0,59,0.00,,,0.00,247.000000,,2013-02-02 23:32:00,
2013-02-02 15:42:00,47.0,33.0,-100.00,North,4,2.0,5.0,59,0.00,,,0.00,247.000000,,2013-02-02 23:42:00,
2013-02-02 15:52:00,47.0,33.0,-100.00,North,4,2.0,5.0,59,0.00,,,0.00,247.000000,,2013-02-02 23:52:00,
2013-02-02 16:01:00,47.0,33.0,-100.00,North,4,2.0,5.0,59,0.00,,,0.00,247.000000,,2013-02-03 00:01:00,
2013-02-02 16:32:00,47.0,33.0,-100.00,NNW,339,2.0,4.0,59,0.00,,,0.00,164.000000,,2013-02-03 00:32:00,
2013-02-02 16:42:00,47.0,33.0,-100.00,NNW,339,2.0,4.0,59,0.00,,,0.00,164.000000,,2013-02-03 00:42:00,
2013-02-02 16:52:00,47.0,33.0,-100.00,NNW,339,2.0,4.0,59,0.00,,,0.00,164.000000,,2013-02-03 00:52:00,
2013-02-02 17:02:00,47.0,33.0,-100.00,NNW,339,2.0,4.0,59,0.00,,,0.00,164.000000,,2013-02-03 01:02:00,
2013-02-02 17:32:00,41.0,33.0,-100.00,SSW,202,1.0,4.0,72,0.00,,,0.00,38.000000,,2013-02-03 01:32:00,
2013-02-02 17:42:00,41.0,33.0,-100.00,SSW,202,1.0,4.0,72,0.00,,,0.00,38.000000,,2013-02-03 01:42:00,
2013-02-02 17:52:00,41.0,33.0,-100.00,SSW,202,1.0,4.0,72,0.00,,,0.00,38.000000,,2013-02-03 01:52:00,
2013-02-02 18:01:00,41.0,33.0,-100.00,SSW,202,1.0,4.0,72,0.00,,,0.00,38.000000,,2013-02-03 02:01:00,
2013-02-02 18:32:00,38.0,32.0,-100.00,SW,223,2.0,3.0,78,0.00,,,0.00,2.000000,,2013-02-03 02:32:00,
2013-02-02 18:42:00,38.0,32.0,-100.00,SW,223,2.0,3.0,78,0.00,,,0.00,2.000000,,2013-02-03 02:42:00,
2013-02-02 18:52:00,38.0,32.0,-100.00,SW,223,2.0,3.0,78,0.00,,,0.00,2.000000,,2013-02-03 02:52:00,
2013-02-02 19:01:00,38.0,32.0,-100.00,SW,223,2.0,3.0,78,0.00,,,0.00,2.000000,,2013-02-03 03:01:00,
2013-02-02 19:32:00,35.0,31.0,-100.00,SSW,204,2.0,4.0,86,0.00,,,0.00,1.000000,,2013-02-03 03:32:00,
2013-02-02 19:42:00,35.0,31.0,-100.00,SSW,204,2.0,4.0,86,0.00,,,0.00,1.000000,,2013-02-03 03:42:00,
2013-02-02 19:52:00,35.0,31.0,-100.00,SSW,204,2.0,4.0,86,0.00,,,0.00,1.000000,,2013-02-03 03:52:00,
2013-02-02 20:01:00,35.0,31.0,-100.00,SSW,204,2.0,4.0,86,0.00,,,0.00,1.000000,,2013-02-03 04:01:00,
2013-02-02 20:32:00,33.0,30.0,-100.00,West,275,0.0,4.0,87,0.00,,,0.00,1.000000,,2013-02-03 04:32:00,
2013-02-02 20:42:00,33.0,30.0,-100.00,West,275,0.0,4.0,87,0.00,,,0.00,1.000000,,2013-02-03 04:42:00,
2013-02-02 20:52:00,33.0,30.0,-100.00,West,275,0.0,4.0,87,0.00,,,0.00,1.000000,,2013-02-03 04:52:00,
2013-02-02 21:03:00,33.0,30.0,-100.00,West,275,0.0,4.0,87,0.00,,,0.00,1.000000,,2013-02-03 05:03:00,
2013-02-02 21:32:00,33.0,30.0,-100.00,SSE,152,1.0,4.0,87,0.00,,,0.00,1.000000,,2013-02-03 05:32:00,
2013-02-02 21:42:00,33.0,30.0,-100.00,SSE,152,1.0,4.0,87,0.00,,,0.00,1.000000,,2013-02-03 05:42:00,
2013-02-02 21:52:00,33.0,30.0,-100.00,SSE,152,1.0,4.0,87,0.00,,,0.00,1.000000,,2013-02-03 05:52:00,
2013-02-02 22:02:00,33.0,30.0,-100.00,SSE,152,1.0,4.0,87,0.00,,,0.00,1.000000,,2013-02-03 06:02:00,
2013-02-02 22:32:00,33.0,30.0,-100.00,East,79,2.0,4.0,88,0.00,,,0.00,1.000000,,2013-02-03 06:32:00,
2013-02-02 22:42:00,33.0,30.0,-100.00,East,79,2.0,4.0,88,0.00,,,0.00,1.000000,,2013-02-03 06:42:00,
2013-02-02 22:52:00,33.0,30.0,-100.00,East,79,2.0,4.0,88,0.00,,,0.00,1.000000,,2013-02-03 06:52:00,
2013-02-02 23:01:00,33.0,30.0,-100.00,East,79,2.0,4.0,88,0.00,,,0.00,1.000000,,2013-02-03 07:01:00,
2013-02-02 23:32:00,33.0,30.0,-100.00,SW,225,3.0,4.0,90,0.00,,,0.00,1.000000,,2013-02-03 07:32:00,
2013-02-02 23:42:00,33.0,30.0,-100.00,SW,225,3.0,4.0,90,0.00,,,0.00,1.000000,,2013-02-03 07:42:00,
2013-02-02 23:52:00,33.0,30.0,-100.00,SW,225,3.0,4.0,90,0.00,,,0.00,1.000000,,2013-02-03 07:52:00,